createdAt,value
2019-05-23T00:01:18.489Z,13.60
2019-05-23T00:04:17.743Z,14.13
2019-05-23T00:07:12.355Z,14.10
2019-05-23T00:10:03.467Z,13.23
2019-05-23T00:12:54.027Z,13.63
2019-05-23T00:15:31.593Z,14.00
2019-05-23T00:18:04.639Z,13.60
2019-05-23T00:20:36.399Z,14.20
2019-05-23T00:23:08.761Z,14.27
2019-05-23T00:25:40.468Z,14.13
2019-05-23T00:28:11.386Z,14.33
2019-05-23T00:30:47.584Z,14.17
2019-05-23T00:33:21.211Z,14.63
2019-05-23T00:35:53.041Z,14.00
2019-05-23T00:38:23.668Z,14.10
2019-05-23T00:40:55.258Z,14.07
2019-05-23T00:43:27.560Z,14.57
2019-05-23T00:46:00.092Z,14.67
2019-05-23T00:48:31.566Z,14.80
2019-05-23T00:51:05.378Z,15.63
2019-05-23T00:53:36.768Z,14.60
2019-05-23T00:56:09.529Z,14.60
2019-05-23T00:58:40.964Z,15.57
2019-05-23T01:01:13.526Z,14.77
2019-05-23T01:03:43.813Z,15.20
2019-05-23T01:06:15.493Z,14.87
2019-05-23T01:08:46.383Z,15.57
2019-05-23T01:11:17.385Z,16.30
2019-05-23T01:13:47.816Z,15.23
2019-05-23T01:16:21.438Z,15.47
2019-05-23T01:18:52.010Z,15.33
2019-05-23T01:21:46.235Z,16.23
2019-05-23T01:24:25.495Z,16.37
2019-05-23T01:26:56.467Z,17.13
2019-05-23T01:29:37.402Z,16.07
2019-05-23T01:32:09.516Z,16.87
2019-05-23T01:34:39.956Z,17.93
2019-05-23T01:37:10.585Z,17.13
2019-05-23T01:39:41.168Z,18.67
2019-05-23T01:42:11.951Z,18.13
2019-05-23T01:44:42.678Z,17.87
2019-05-23T01:47:15.393Z,18.30
2019-05-23T01:49:45.902Z,19.97
2019-05-23T01:52:20.341Z,18.60
2019-05-23T01:54:50.759Z,19.27
2019-05-23T01:57:23.077Z,17.63
2019-05-23T02:00:08.122Z,16.60
2019-05-23T02:02:28.197Z,16.70
2019-05-23T02:04:59.229Z,15.27
2019-05-23T02:07:31.625Z,15.43
2019-05-23T02:10:01.878Z,15.50
2019-05-23T02:12:34.387Z,15.50
2019-05-23T02:15:05.398Z,14.77
2019-05-23T02:17:36.357Z,14.30
2019-05-23T02:20:07.890Z,14.43
2019-05-23T02:22:40.536Z,14.03
2019-05-23T02:25:12.914Z,13.97
2019-05-23T02:27:44.399Z,14.40
2019-05-23T02:30:33.313Z,14.87
2019-05-23T02:32:51.148Z,14.73
2019-05-23T02:35:21.416Z,15.47
2019-05-23T02:38:11.629Z,14.63
2019-05-23T02:41:13.112Z,14.27
2019-05-23T02:43:49.086Z,15.03
2019-05-23T02:46:34.549Z,14.93
2019-05-23T02:49:09.076Z,15.60
2019-05-23T02:51:40.425Z,15.83
2019-05-23T02:54:15.281Z,15.60
2019-05-23T02:56:46.030Z,16.10
2019-05-23T02:59:48.168Z,15.47
2019-05-23T03:02:58.767Z,16.30
2019-05-23T03:05:31.273Z,16.50
2019-05-23T03:08:07.994Z,16.27
2019-05-23T03:10:58.596Z,15.93
2019-05-23T03:13:32.497Z,16.00
2019-05-23T03:16:03.926Z,15.80
2019-05-23T03:18:41.580Z,15.80
2019-05-23T03:21:13.531Z,16.10
2019-05-23T03:23:44.750Z,16.43
2019-05-23T03:27:17.085Z,15.53
2019-05-23T03:29:48.081Z,16.80
2019-05-23T03:32:39.443Z,15.87
2019-05-23T03:35:15.009Z,16.40
2019-05-23T03:37:45.976Z,16.60
2019-05-23T03:40:16.808Z,15.70
2019-05-23T03:42:48.222Z,16.77
2019-05-23T03:45:23.966Z,16.60
2019-05-23T03:47:54.454Z,16.00
2019-05-23T03:50:29.283Z,16.13
2019-05-23T03:52:59.743Z,15.63
2019-05-23T03:55:32.814Z,16.53
2019-05-23T03:58:05.751Z,16.03
2019-05-23T04:00:43.830Z,15.50
2019-05-23T04:03:14.190Z,15.53
2019-05-23T04:05:45.606Z,16.70
2019-05-23T04:08:17.061Z,15.60
2019-05-23T04:10:51.609Z,16.43
2019-05-23T04:13:20.312Z,15.20
2019-05-23T04:15:50.484Z,15.27
2019-05-23T04:18:20.998Z,15.33
2019-05-23T04:20:51.636Z,15.83
2019-05-23T04:23:22.279Z,15.53
2019-05-23T04:25:52.502Z,15.57
2019-05-23T04:28:24.153Z,16.23
2019-05-23T04:30:54.580Z,15.67
2019-05-23T04:33:28.592Z,15.87
2019-05-23T04:35:58.923Z,15.20
2019-05-23T04:38:30.653Z,14.73
2019-05-23T04:41:01.102Z,15.80
2019-05-23T04:43:32.584Z,15.83
2019-05-23T04:46:03.205Z,15.23
2019-05-23T04:48:33.448Z,14.77
2019-05-23T04:51:06.910Z,15.53
2019-05-23T04:53:41.246Z,14.57
2019-05-23T04:56:14.327Z,14.97
2019-05-23T04:58:45.808Z,15.17
2019-05-23T05:01:17.637Z,15.20
2019-05-23T05:03:49.424Z,15.53
2019-05-23T05:06:20.296Z,15.57
2019-05-23T05:08:54.572Z,15.40
2019-05-23T05:11:24.714Z,16.20
2019-05-23T05:13:59.024Z,16.67
2019-05-23T05:16:29.567Z,15.40
2019-05-23T05:18:59.952Z,15.60
2019-05-23T05:21:30.128Z,15.77
2019-05-23T05:24:00.974Z,15.97
2019-05-23T05:26:31.424Z,15.80
2019-05-23T05:29:01.602Z,15.70
2019-05-23T05:31:33.842Z,16.03
2019-05-23T05:34:05.806Z,16.40
2019-05-23T05:36:41.374Z,15.87
2019-05-23T05:39:12.997Z,15.47
2019-05-23T05:41:43.193Z,16.07
2019-05-23T05:44:14.460Z,16.27
2019-05-23T05:46:45.734Z,16.37
2019-05-23T05:49:15.906Z,15.77
2019-05-23T05:51:48.078Z,16.20
2019-05-23T05:54:20.402Z,16.13
2019-05-23T05:56:51.040Z,16.83
2019-05-23T05:59:23.522Z,15.60
2019-05-23T06:01:54.574Z,15.70
2019-05-23T06:04:27.231Z,15.43
2019-05-23T06:07:29.052Z,15.50
2019-05-23T06:10:03.561Z,15.13
2019-05-23T06:12:33.969Z,15.20
2019-05-23T06:15:05.097Z,15.80
2019-05-23T06:17:36.458Z,16.63
2019-05-23T06:20:09.227Z,15.70
2019-05-23T06:22:40.635Z,16.03
2019-05-23T06:25:11.967Z,16.27
2019-05-23T06:27:43.040Z,16.47
2019-05-23T06:30:15.622Z,15.50
2019-05-23T06:32:48.775Z,15.90
2019-05-23T06:35:21.345Z,15.30
2019-05-23T06:37:51.958Z,15.60
2019-05-23T06:40:23.223Z,16.00
2019-05-23T06:42:53.601Z,15.53
2019-05-23T06:45:24.935Z,15.73
2019-05-23T06:47:55.927Z,16.50
2019-05-23T06:50:26.817Z,15.87
2019-05-23T06:52:58.589Z,15.67
2019-05-23T06:55:28.767Z,15.97
2019-05-23T06:57:59.026Z,16.27
2019-05-23T07:00:29.987Z,15.30
2019-05-23T07:03:01.801Z,15.57
2019-05-23T07:05:35.475Z,16.00
2019-05-23T07:08:06.087Z,15.73
2019-05-23T07:10:39.365Z,16.17
2019-05-23T07:13:09.746Z,16.43
2019-05-23T07:15:40.055Z,16.27
2019-05-23T07:18:10.270Z,14.83
2019-05-23T07:20:40.504Z,16.03
2019-05-23T07:23:13.034Z,16.07
2019-05-23T07:25:43.335Z,15.80
2019-05-23T07:28:13.498Z,15.23
2019-05-23T07:30:43.762Z,15.53
2019-05-23T07:33:14.795Z,15.23
2019-05-23T07:35:45.324Z,16.17
2019-05-23T07:38:15.565Z,15.50
2019-05-23T07:40:46.754Z,16.13
2019-05-23T07:43:17.331Z,15.73
2019-05-23T07:45:57.693Z,15.97
2019-05-23T07:48:28.880Z,16.33
2019-05-23T07:51:06.928Z,16.17
2019-05-23T07:53:46.501Z,16.30
2019-05-23T07:56:18.456Z,16.63
2019-05-23T07:58:49.095Z,16.30
2019-05-23T08:01:22.311Z,16.50
2019-05-23T08:03:53.054Z,16.87
2019-05-23T08:06:24.873Z,16.03
2019-05-23T08:08:55.326Z,15.83
2019-05-23T08:11:26.005Z,15.80
2019-05-23T08:13:56.970Z,15.93
2019-05-23T08:16:30.098Z,17.27
2019-05-23T08:19:00.625Z,15.87
2019-05-23T08:21:32.159Z,17.07
2019-05-23T08:24:02.438Z,16.07
2019-05-23T08:26:33.982Z,17.17
2019-05-23T08:29:24.712Z,16.70
2019-05-23T08:31:36.851Z,16.87
2019-05-23T08:34:07.364Z,17.23
2019-05-23T08:36:39.364Z,16.33
2019-05-23T08:39:10.630Z,17.07
2019-05-23T08:41:41.190Z,16.60
2019-05-23T08:44:11.953Z,16.27
2019-05-23T08:46:43.706Z,15.80
2019-05-23T08:49:14.342Z,16.20
2019-05-23T08:51:45.822Z,16.77
2019-05-23T08:54:17.608Z,16.17
2019-05-23T08:56:48.490Z,16.17
2019-05-23T08:59:18.663Z,17.30
2019-05-23T09:01:48.949Z,15.27
2019-05-23T09:04:19.500Z,16.77
2019-05-23T09:06:50.933Z,15.17
2019-05-23T09:09:29.523Z,15.63
2019-05-23T09:11:53.241Z,15.93
2019-05-23T09:14:23.803Z,16.27
2019-05-23T09:16:54.808Z,16.23
2019-05-23T09:19:24.960Z,16.47
2019-05-23T09:21:57.989Z,16.13
2019-05-23T09:24:27.611Z,17.30
2019-05-23T09:26:58.800Z,15.90
2019-05-23T09:29:29.264Z,16.53
2019-05-23T09:31:59.610Z,15.13
2019-05-23T09:34:30.688Z,16.07
2019-05-23T09:37:03.515Z,14.97
2019-05-23T09:39:36.807Z,13.93
2019-05-23T09:42:07.010Z,16.37
2019-05-23T09:44:37.383Z,13.37
2019-05-23T09:47:08.191Z,14.10
2019-05-23T09:49:39.556Z,15.60
2019-05-23T09:52:12.699Z,13.10
2019-05-23T09:54:44.344Z,15.60
2019-05-23T09:57:15.557Z,16.53
2019-05-23T09:59:45.716Z,15.37
2019-05-23T10:02:15.928Z,14.33
2019-05-23T10:04:48.116Z,14.13
2019-05-23T10:07:19.286Z,14.00
2019-05-23T10:09:51.012Z,14.63
2019-05-23T10:12:22.575Z,14.07
2019-05-23T10:14:53.020Z,13.87
2019-05-23T10:17:23.692Z,13.80
2019-05-23T10:19:53.979Z,13.75
2019-05-23T10:22:24.240Z,14.73
2019-05-23T10:24:54.418Z,12.77
2019-05-23T10:27:26.671Z,11.10
2019-05-23T10:29:56.884Z,10.10
2019-05-23T10:32:27.067Z,9.37
2019-05-23T10:34:57.234Z,8.93
2019-05-23T10:37:28.062Z,9.93
2019-05-23T10:39:58.469Z,11.05
2019-05-23T10:42:30.163Z,10.85
2019-05-23T10:45:00.438Z,9.35
2019-05-23T10:47:31.436Z,9.08
2019-05-23T10:50:07.617Z,7.58
2019-05-23T10:52:34.687Z,8.60
2019-05-23T10:55:06.582Z,10.03
2019-05-23T10:57:37.954Z,10.80
2019-05-23T11:00:10.879Z,12.07
2019-05-23T11:02:43.215Z,10.10
2019-05-23T11:05:14.439Z,9.68
2019-05-23T11:07:45.334Z,8.88
2019-05-23T11:10:17.168Z,10.28
2019-05-23T11:12:48.333Z,8.90
2019-05-23T11:15:19.500Z,9.43
2019-05-23T11:17:53.538Z,9.15
2019-05-23T11:20:22.753Z,8.80
2019-05-23T11:22:52.999Z,8.18
2019-05-23T11:25:24.542Z,8.20
2019-05-23T11:27:55.783Z,8.23
2019-05-23T11:30:32.030Z,7.28
2019-05-23T11:33:02.567Z,7.45
2019-05-23T11:35:32.895Z,5.58
2019-05-23T11:38:03.604Z,5.55
2019-05-23T11:40:34.053Z,5.95
2019-05-23T11:43:05.833Z,5.75
2019-05-23T11:45:46.047Z,5.03
2019-05-23T11:48:16.188Z,5.40
2019-05-23T11:50:46.925Z,5.08
2019-05-23T11:53:18.083Z,4.33
2019-05-23T11:55:53.997Z,4.40
2019-05-23T11:58:21.841Z,4.40
2019-05-23T12:01:21.206Z,4.22
2019-05-23T12:03:56.639Z,4.30
2019-05-23T12:06:29.832Z,4.67
2019-05-23T12:09:00.065Z,4.00
2019-05-23T12:11:35.525Z,4.55
2019-05-23T12:14:03.882Z,3.90
2019-05-23T12:16:34.114Z,3.85
2019-05-23T12:19:06.177Z,3.75
2019-05-23T12:21:36.825Z,3.60
2019-05-23T12:24:06.996Z,4.50
2019-05-23T12:26:37.165Z,3.85
2019-05-23T12:29:07.358Z,3.33
2019-05-23T12:31:38.251Z,3.80
2019-05-23T12:34:10.288Z,3.25
2019-05-23T12:36:41.013Z,3.20
2019-05-23T12:39:11.663Z,2.85
2019-05-23T12:41:43.652Z,2.90
2019-05-23T12:44:17.561Z,3.58
2019-05-23T12:46:47.270Z,3.60
2019-05-23T12:49:40.422Z,3.58
2019-05-23T12:52:11.956Z,3.77
2019-05-23T12:54:43.218Z,3.70
2019-05-23T12:57:14.152Z,3.77
2019-05-23T12:59:44.636Z,3.20
2019-05-23T13:02:22.804Z,2.25
2019-05-23T13:04:54.162Z,3.37
2019-05-23T13:07:35.583Z,3.00
2019-05-23T13:09:57.173Z,2.70
2019-05-23T13:12:27.853Z,3.20
2019-05-23T13:14:59.056Z,2.98
2019-05-23T13:17:30.659Z,2.90
2019-05-23T13:20:01.277Z,3.00
2019-05-23T13:22:32.588Z,3.00
2019-05-23T13:25:02.760Z,2.90
2019-05-23T13:27:34.577Z,2.58
2019-05-23T13:30:08.096Z,2.55
2019-05-23T13:32:38.403Z,2.83
2019-05-23T13:35:09.078Z,2.77
2019-05-23T13:37:53.248Z,2.52
2019-05-23T13:40:12.169Z,2.58
2019-05-23T13:42:42.596Z,2.72
2019-05-23T13:45:12.826Z,2.87
2019-05-23T13:47:43.910Z,3.15
2019-05-23T13:50:16.923Z,2.80
2019-05-23T13:52:48.157Z,2.75
2019-05-23T13:55:18.716Z,2.92
2019-05-23T13:57:49.849Z,3.62
2019-05-23T14:00:22.711Z,2.80
2019-05-23T14:02:53.124Z,2.62
2019-05-23T14:05:25.036Z,2.72
2019-05-23T14:08:10.775Z,2.67
2019-05-23T14:10:28.520Z,2.40
2019-05-23T14:12:58.653Z,2.47
2019-05-23T14:15:35.144Z,2.85
2019-05-23T14:18:05.363Z,2.50
2019-05-23T14:20:36.931Z,2.40
2019-05-23T14:23:27.508Z,2.20
2019-05-23T14:25:58.393Z,2.60
2019-05-23T14:28:30.413Z,2.60
2019-05-23T14:31:06.489Z,2.98
2019-05-23T14:33:44.805Z,2.85
2019-05-23T14:36:23.131Z,2.70
2019-05-23T14:38:55.140Z,2.40
2019-05-23T14:41:43.766Z,3.10
2019-05-23T14:43:59.585Z,2.50
2019-05-23T14:46:33.302Z,2.70
2019-05-23T14:49:11.504Z,3.62
2019-05-23T14:51:49.338Z,2.58
2019-05-23T14:54:26.015Z,2.25
2019-05-23T14:56:56.608Z,2.25
2019-05-23T14:59:28.480Z,2.87
2019-05-23T15:01:58.700Z,2.10
2019-05-23T15:04:29.744Z,2.15
2019-05-23T15:07:00.385Z,2.02
2019-05-23T15:09:30.502Z,1.98
2019-05-23T15:12:00.856Z,2.27
2019-05-23T15:14:31.519Z,2.02
2019-05-23T15:17:01.671Z,2.00
2019-05-23T15:19:40.463Z,1.87
2019-05-23T15:22:03.789Z,1.98
2019-05-23T15:24:34.406Z,2.02
2019-05-23T15:27:05.312Z,1.92
2019-05-23T15:29:35.481Z,2.20
2019-05-23T15:32:06.061Z,1.87
2019-05-23T15:34:36.216Z,1.85
2019-05-23T15:37:06.393Z,1.85
2019-05-23T15:39:37.311Z,2.30
2019-05-23T15:42:08.403Z,2.05
2019-05-23T15:44:38.670Z,2.08
2019-05-23T15:47:09.040Z,1.72
2019-05-23T15:49:40.867Z,2.00
2019-05-23T15:52:46.196Z,2.00
2019-05-23T15:55:40.259Z,2.20
2019-05-23T15:58:15.196Z,2.12
2019-05-23T16:01:11.969Z,2.30
2019-05-23T16:03:47.863Z,2.00
2019-05-23T16:06:21.166Z,2.12
2019-05-23T16:08:51.531Z,2.27
2019-05-23T16:11:21.756Z,2.30
2019-05-23T16:13:52.431Z,2.40
2019-05-23T16:16:23.200Z,2.00
2019-05-23T16:18:53.858Z,2.50
2019-05-23T16:21:24.506Z,2.08
2019-05-23T16:23:54.644Z,2.02
2019-05-23T16:26:25.884Z,2.22
2019-05-23T16:28:56.538Z,2.12
2019-05-23T16:31:26.670Z,2.00
2019-05-23T16:33:56.926Z,2.35
2019-05-23T16:36:27.084Z,2.20
2019-05-23T16:38:57.339Z,2.05
2019-05-23T16:41:27.615Z,2.20
2019-05-23T16:43:58.442Z,2.10
2019-05-23T16:46:28.691Z,2.60
2019-05-23T16:48:59.060Z,2.50
2019-05-23T16:51:29.437Z,2.37
2019-05-23T16:54:01.927Z,2.10
2019-05-23T16:56:41.862Z,2.60
2019-05-23T16:59:26.557Z,2.22
2019-05-23T17:02:14.692Z,2.57
2019-05-23T17:05:08.617Z,2.92
2019-05-23T17:07:45.447Z,2.42
2019-05-23T17:10:34.178Z,2.65
2019-05-23T17:13:09.166Z,7.12
2019-05-23T17:15:54.137Z,4.00
2019-05-23T17:18:49.849Z,2.52
2019-05-23T17:21:26.913Z,2.75
2019-05-23T17:24:10.062Z,2.50
2019-05-23T17:26:54.353Z,2.75
2019-05-23T17:29:35.437Z,1.95
2019-05-23T17:32:09.041Z,2.75
2019-05-23T17:34:39.192Z,2.05
2019-05-23T17:37:11.826Z,1.90
2019-05-23T17:39:43.889Z,2.60
2019-05-23T17:42:14.603Z,2.52
2019-05-23T17:44:44.814Z,2.27
2019-05-23T17:47:15.086Z,2.35
2019-05-23T17:49:46.345Z,2.20
2019-05-23T17:52:18.423Z,1.70
2019-05-23T17:54:48.591Z,1.80
2019-05-23T17:57:19.061Z,1.52
2019-05-23T17:59:49.452Z,1.67
2019-05-23T18:02:21.778Z,1.62
2019-05-23T18:04:52.504Z,1.60
2019-05-23T18:07:24.903Z,1.60
2019-05-23T18:09:55.404Z,1.42
2019-05-23T18:12:26.116Z,1.87
2019-05-23T18:14:57.915Z,1.50
2019-05-23T18:17:28.714Z,1.50
2019-05-23T18:19:58.886Z,1.60
2019-05-23T18:22:30.748Z,1.70
2019-05-23T18:25:01.754Z,1.43
2019-05-23T18:27:33.368Z,1.98
2019-05-23T18:30:05.977Z,1.60
2019-05-23T18:32:36.953Z,2.00
2019-05-23T18:35:09.336Z,1.92
2019-05-23T18:37:40.064Z,1.80
2019-05-23T18:40:11.070Z,1.50
2019-05-23T18:42:42.441Z,1.83
2019-05-23T18:45:13.709Z,1.80
2019-05-23T18:47:43.888Z,1.80
2019-05-23T18:50:15.710Z,1.70
2019-05-23T18:52:47.753Z,1.70
2019-05-23T18:55:18.582Z,1.80
2019-05-23T18:57:49.334Z,1.80
2019-05-23T19:00:23.134Z,1.90
2019-05-23T19:02:56.596Z,1.90
2019-05-23T19:05:27.685Z,1.73
2019-05-23T19:07:59.459Z,1.83
2019-05-23T19:10:29.880Z,2.13
2019-05-23T19:13:00.808Z,2.10
2019-05-23T19:15:31.301Z,2.10
2019-05-23T19:18:01.538Z,1.90
2019-05-23T19:20:31.869Z,2.60
2019-05-23T19:23:03.178Z,2.33
2019-05-23T19:25:35.500Z,2.47
2019-05-23T19:28:07.659Z,2.20
2019-05-23T19:30:38.121Z,2.40
2019-05-23T19:33:09.296Z,2.30
2019-05-23T19:35:41.662Z,2.33
2019-05-23T19:38:12.554Z,2.00
2019-05-23T19:40:45.002Z,2.30
2019-05-23T19:43:15.769Z,2.27
2019-05-23T19:45:47.837Z,2.13
2019-05-23T19:48:19.090Z,2.20
2019-05-23T19:50:50.608Z,2.17
2019-05-23T19:53:20.874Z,2.13
2019-05-23T19:55:52.130Z,2.07
2019-05-23T19:58:24.045Z,2.40
2019-05-23T20:00:55.628Z,2.30
2019-05-23T20:03:27.578Z,2.30
2019-05-23T20:05:58.052Z,2.43
2019-05-23T20:08:28.648Z,2.30
2019-05-23T20:10:59.507Z,2.47
2019-05-23T20:13:29.760Z,2.47
2019-05-23T20:16:00.431Z,2.40
2019-05-23T20:18:31.571Z,2.43
2019-05-23T20:21:02.421Z,2.70
2019-05-23T20:23:32.590Z,2.50
2019-05-23T20:26:07.860Z,2.30
2019-05-23T20:28:39.766Z,2.60
2019-05-23T20:31:10.420Z,2.70
2019-05-23T20:33:40.857Z,2.70
2019-05-23T20:36:13.289Z,2.80
2019-05-23T20:38:44.289Z,2.80
2019-05-23T20:41:15.478Z,3.23
2019-05-23T20:43:45.625Z,3.20
2019-05-23T20:46:19.191Z,3.13
2019-05-23T20:48:49.728Z,3.10
2019-05-23T20:51:20.383Z,2.83
2019-05-23T20:53:50.858Z,3.20
2019-05-23T20:56:27.264Z,3.03
2019-05-23T20:58:57.434Z,2.83
2019-05-23T21:01:34.812Z,3.00
2019-05-23T21:04:07.000Z,3.03
2019-05-23T21:06:38.787Z,3.30
2019-05-23T21:09:10.183Z,2.97
2019-05-23T21:11:41.740Z,3.30
2019-05-23T21:14:13.346Z,3.00
2019-05-23T21:16:45.507Z,3.27
2019-05-23T21:19:17.029Z,3.33
2019-05-23T21:21:49.166Z,3.10
2019-05-23T21:24:20.546Z,3.33
2019-05-23T21:26:51.092Z,3.20
2019-05-23T21:29:22.224Z,3.23
2019-05-23T21:31:54.549Z,3.73
2019-05-23T21:34:25.432Z,3.30
2019-05-23T21:36:56.216Z,3.40
2019-05-23T21:39:28.231Z,3.63
2019-05-23T21:41:58.426Z,3.53
2019-05-23T21:44:28.572Z,3.33
2019-05-23T21:47:01.027Z,3.30
2019-05-23T21:49:32.056Z,3.33
2019-05-23T21:52:02.323Z,3.23
2019-05-23T21:54:32.489Z,3.20
2019-05-23T21:57:02.685Z,3.43
2019-05-23T21:59:34.959Z,3.67
2019-05-23T22:02:13.818Z,3.60
2019-05-23T22:04:52.557Z,3.70
2019-05-23T22:07:22.857Z,3.37
2019-05-23T22:09:53.175Z,3.57
2019-05-23T22:12:24.044Z,3.60
2019-05-23T22:14:56.642Z,3.63
2019-05-23T22:17:27.349Z,3.70
2019-05-23T22:19:58.924Z,3.43
2019-05-23T22:22:29.651Z,3.57
2019-05-23T22:24:59.906Z,3.80
2019-05-23T22:27:30.134Z,3.63
2019-05-23T22:30:00.318Z,4.00
2019-05-23T22:32:32.749Z,3.50
2019-05-23T22:35:06.538Z,3.80
2019-05-23T22:37:36.812Z,4.03
2019-05-23T22:40:09.703Z,3.60
2019-05-23T22:42:41.090Z,3.60
2019-05-23T22:45:15.111Z,3.53
2019-05-23T22:47:46.026Z,3.70
2019-05-23T22:50:16.206Z,3.47
2019-05-23T22:52:46.393Z,3.90
2019-05-23T22:55:17.823Z,4.03
2019-05-23T22:57:48.464Z,3.40
2019-05-23T23:00:26.029Z,3.60
2019-05-23T23:02:56.581Z,3.47
2019-05-23T23:05:28.512Z,3.77
2019-05-23T23:08:01.701Z,3.53
2019-05-23T23:10:33.369Z,3.47
2019-05-23T23:13:03.522Z,3.43
2019-05-23T23:15:35.425Z,3.50
2019-05-23T23:18:06.897Z,3.43
2019-05-23T23:20:37.100Z,3.70
2019-05-23T23:23:08.089Z,3.60
2019-05-23T23:25:39.585Z,3.40
2019-05-23T23:28:14.478Z,3.53
2019-05-23T23:30:46.400Z,3.50
2019-05-23T23:33:16.633Z,3.50
2019-05-23T23:35:49.316Z,3.80
2019-05-23T23:38:19.953Z,3.80
2019-05-23T23:40:50.794Z,3.70
2019-05-23T23:43:20.968Z,3.80
2019-05-23T23:46:08.906Z,3.47
2019-05-23T23:48:57.391Z,3.67
2019-05-23T23:51:45.306Z,3.73
2019-05-23T23:54:33.730Z,3.77
2019-05-23T23:57:23.095Z,3.80
2019-05-23T23:59:53.166Z,3.80
